Time;durP1;ratioP1;P1;durP2;ratioP2;P2;SDS_P1;SDS_P2;PMS_P1;PMS_P2;Temp;Humidity;BMP_temperature;BMP_pressure;BME280_temperature;BME280_humidity;BME280_pressure;Samples;Min_cycle;Max_cycle;Signal;HPM_P1;HPM_P2
2021/07/23 00:02:56;;;;;;;19.65;15.15;;;22.70;99.90;;;;;;5031802;28;20044;-70
2021/07/23 00:06:00;;;;;;;23.05;15.48;;;22.70;99.90;;;;;;5030872;28;20041;-68
2021/07/23 00:09:04;;;;;;;18.30;14.82;;;22.70;99.90;;;;;;5031491;28;20044;-69
2021/07/23 00:12:10;;;;;;;21.25;14.80;;;22.70;99.90;;;;;;5031211;28;20051;-68
2021/07/23 00:15:14;;;;;;;23.58;15.68;;;22.60;99.90;;;;;;5031577;28;20041;-69
2021/07/23 00:18:18;;;;;;;24.48;16.85;;;22.60;99.90;;;;;;5031406;28;20049;-69
2021/07/23 00:21:22;;;;;;;23.38;16.20;;;22.50;99.90;;;;;;5030963;28;20040;-69
2021/07/23 00:24:26;;;;;;;21.00;16.50;;;22.50;99.90;;;;;;5031342;28;20052;-68
2021/07/23 00:27:30;;;;;;;21.33;16.70;;;22.50;99.90;;;;;;5031439;28;20037;-68
2021/07/23 00:30:35;;;;;;;22.13;16.65;;;22.40;99.90;;;;;;5030739;28;20499;-68
2021/07/23 00:33:39;;;;;;;27.20;18.42;;;22.40;99.90;;;;;;5031056;28;20489;-68
2021/07/23 00:36:43;;;;;;;25.60;16.48;;;22.40;99.90;;;;;;5031208;28;20061;-68
2021/07/23 00:39:46;;;;;;;24.98;17.42;;;22.40;99.90;;;;;;5034528;28;20048;-68
2021/07/23 00:42:51;;;;;;;22.15;17.33;;;22.30;99.90;;;;;;5016980;28;20380;-68
2021/07/23 00:45:56;;;;;;;21.17;17.30;;;22.20;99.90;;;;;;5050369;28;20286;-69
2021/07/23 00:49:01;;;;;;;21.27;16.88;;;22.20;99.90;;;;;;5030930;28;20077;-68
2021/07/23 00:52:05;;;;;;;25.25;16.90;;;22.20;99.90;;;;;;5030049;28;20037;-68
2021/07/23 00:55:12;;;;;;;24.10;16.58;;;22.20;99.90;;;;;;5030720;28;20044;-70
2021/07/23 00:58:18;;;;;;;25.58;17.20;;;22.10;99.90;;;;;;5010094;28;20488;-69
2021/07/23 01:01:24;;;;;;;22.15;16.58;;;22.10;99.90;;;;;;5009584;28;20049;-69
2021/07/23 01:04:41;;;;;;;26.10;17.70;;;22.10;99.90;;;;;;5000322;28;20404;-70
2021/07/23 01:07:46;;;;;;;24.92;16.63;;;22.00;99.90;;;;;;5009634;28;20041;-69
2021/07/23 01:10:50;;;;;;;25.10;16.60;;;22.00;99.90;;;;;;5010238;28;20041;-69
2021/07/23 01:14:05;;;;;;;26.70;17.77;;;22.00;99.90;;;;;;5037933;28;20059;-69
2021/07/23 01:17:09;;;;;;;26.08;17.67;;;22.00;99.90;;;;;;5048947;28;20056;-69
2021/07/23 01:20:23;;;;;;;23.88;18.15;;;22.00;99.90;;;;;;5048846;28;20387;-69
2021/07/23 01:23:31;;;;;;;22.38;17.88;;;22.00;99.90;;;;;;5049927;28;20501;-69
2021/07/23 01:26:43;;;;;;;25.63;18.23;;;22.00;99.90;;;;;;5049257;28;20048;-70
2021/07/23 01:29:50;;;;;;;;;;;22.00;99.90;;;;;;5049637;28;20036;-69
2021/07/23 01:32:54;;;;;;;26.00;18.40;;;22.00;99.90;;;;;;5048893;28;19916;-69
2021/07/23 01:35:59;;;;;;;23.73;18.10;;;22.10;99.90;;;;;;5049084;28;20051;-69
2021/07/23 01:39:06;;;;;;;21.90;18.00;;;22.00;99.90;;;;;;5048805;28;20056;-68
2021/07/23 01:42:12;;;;;;;27.15;18.33;;;22.00;99.90;;;;;;5048657;28;20384;-69
2021/07/23 01:45:20;;;;;;;26.25;19.00;;;22.00;99.90;;;;;;5048271;28;20040;-69
2021/07/23 01:48:44;;;;;;;29.58;19.13;;;22.00;99.90;;;;;;5030869;28;20041;-69
2021/07/23 01:52:11;;;;;;;27.20;18.30;;;21.90;99.90;;;;;;5029305;28;20060;-68
2021/07/23 01:55:22;;;;;;;25.58;18.40;;;21.90;99.90;;;;;;5029736;28;20037;-68
2021/07/23 01:58:27;;;;;;;26.55;19.23;;;21.90;99.90;;;;;;5029864;28;20040;-68
2021/07/23 02:01:35;;;;;;;27.33;19.95;;;21.90;99.90;;;;;;5028479;28;20388;-69
2021/07/23 02:04:53;;;;;;;24.25;18.65;;;21.90;99.90;;;;;;5029810;28;20499;-69
2021/07/23 02:08:01;;;;;;;27.00;18.00;;;21.90;99.90;;;;;;5029064;28;20036;-69
2021/07/23 02:11:06;;;;;;;25.92;19.58;;;21.80;99.90;;;;;;5028516;28;20112;-69
2021/07/23 02:14:10;;;;;;;28.30;20.50;;;21.90;99.90;;;;;;5030084;28;20376;-69
2021/07/23 02:17:15;;;;;;;23.60;18.50;;;21.90;99.90;;;;;;5028813;28;20052;-69
2021/07/23 02:20:21;;;;;;;26.48;17.90;;;21.80;99.90;;;;;;5028489;28;20057;-69
2021/07/23 02:23:25;;;;;;;26.42;18.70;;;21.80;99.90;;;;;;5030024;28;20036;-70
2021/07/23 02:26:29;;;;;;;24.17;19.65;;;21.80;99.90;;;;;;5028887;28;20065;-69
2021/07/23 02:29:33;;;;;;;31.20;20.25;;;21.80;99.90;;;;;;5032085;28;20040;-68
2021/07/23 02:32:38;;;;;;;31.67;19.92;;;21.80;99.90;;;;;;5032346;28;20045;-68
2021/07/23 02:35:43;;;;;;;39.00;20.95;;;21.80;99.90;;;;;;5032424;28;20048;-69
2021/07/23 02:38:47;;;;;;;26.42;18.33;;;21.80;99.90;;;;;;5033079;28;20053;-68
2021/07/23 02:41:54;;;;;;;24.75;18.65;;;21.70;99.90;;;;;;5031908;28;20049;-68
2021/07/23 02:44:59;;;;;;;28.05;19.73;;;21.70;99.90;;;;;;5031261;28;20056;-69
2021/07/23 02:48:04;;;;;;;21.50;17.85;;;21.60;99.90;;;;;;5045407;28;20503;-68
2021/07/23 02:51:10;;;;;;;22.58;19.08;;;21.60;99.90;;;;;;5051959;28;20112;-68
2021/07/23 02:54:16;;;;;;;34.63;20.67;;;21.60;99.90;;;;;;5051744;28;20052;-69
2021/07/23 02:57:20;;;;;;;28.23;20.30;;;21.60;99.90;;;;;;5051975;28;20044;-69
2021/07/23 03:00:25;;;;;;;21.88;19.15;;;21.60;99.90;;;;;;5051647;28;20039;-69
2021/07/23 03:03:33;;;;;;;28.52;21.80;;;21.60;99.90;;;;;;5052738;28;20044;-69
2021/07/23 03:06:38;;;;;;;28.83;20.73;;;21.60;99.90;;;;;;5051576;28;20565;-69
2021/07/23 03:09:43;;;;;;;31.85;22.25;;;21.60;99.90;;;;;;5051609;28;20052;-69
2021/07/23 03:12:49;;;;;;;29.75;22.00;;;21.60;99.90;;;;;;5051634;28;20048;-68
2021/07/23 03:15:54;;;;;;;34.53;23.73;;;21.60;99.90;;;;;;5051595;28;20079;-68
2021/07/23 03:19:01;;;;;;;34.78;24.85;;;21.70;99.90;;;;;;5052323;28;20056;-69
2021/07/23 03:22:05;;;;;;;32.50;25.02;;;21.70;99.90;;;;;;5052274;28;20526;-68
2021/07/23 03:25:11;;;;;;;36.40;24.63;;;21.70;99.90;;;;;;5052306;28;20040;-68
2021/07/23 03:28:35;;;;;;;35.95;26.30;;;21.70;99.90;;;;;;5052076;28;20036;-68
2021/07/23 03:32:08;;;;;;;34.75;26.00;;;21.70;99.90;;;;;;5051830;28;20056;-69
2021/07/23 03:35:13;;;;;;;34.10;25.38;;;21.70;99.90;;;;;;5051142;28;20040;-68
2021/07/23 03:38:23;;;;;;;35.15;27.13;;;21.60;99.90;;;;;;5050922;28;20590;-69
2021/07/23 03:41:29;;;;;;;34.28;25.27;;;21.60;99.90;;;;;;5050372;28;20044;-69
2021/07/23 03:44:37;;;;;;;35.47;26.00;;;21.60;99.90;;;;;;5050069;28;20044;-68
2021/07/23 03:47:41;;;;;;;38.17;26.60;;;21.50;99.90;;;;;;5041805;28;20036;-69
2021/07/23 03:50:48;;;;;;;34.10;23.58;;;21.30;99.90;;;;;;5030398;28;20542;-69
2021/07/23 03:53:53;;;;;;;35.13;23.85;;;21.10;99.90;;;;;;5030921;28;20514;-69
2021/07/23 03:57:05;;;;;;;29.25;23.23;;;21.00;99.90;;;;;;5030615;28;20511;-69
2021/07/23 04:00:11;;;;;;;34.88;24.15;;;21.00;99.90;;;;;;5030268;28;20526;-69
2021/07/23 04:03:23;;;;;;;32.42;25.23;;;21.10;99.90;;;;;;5031523;28;20044;-69
2021/07/23 04:06:30;;;;;;;36.25;26.83;;;21.20;99.90;;;;;;5030662;28;20044;-69
2021/07/23 04:09:37;;;;;;;39.65;28.45;;;21.40;99.90;;;;;;5030513;28;20044;-69
2021/07/23 04:12:41;;;;;;;41.80;30.23;;;21.50;99.90;;;;;;5031411;28;20045;-69
2021/07/23 04:15:46;;;;;;;43.95;28.55;;;21.60;99.90;;;;;;5030243;28;20049;-69
2021/07/23 04:18:52;;;;;;;39.25;27.27;;;21.70;99.90;;;;;;5031152;28;20068;-69
2021/07/23 04:22:23;;;;;;;36.72;25.52;;;21.80;99.90;;;;;;5030944;28;20045;-69
2021/07/23 04:25:38;;;;;;;38.30;26.98;;;21.90;99.90;;;;;;5030415;28;20052;-69
2021/07/23 04:28:42;;;;;;;32.90;23.00;;;22.00;99.90;;;;;;5018999;28;20420;-69
2021/07/23 04:31:48;;;;;;;36.65;24.80;;;22.00;99.90;;;;;;5028797;28;20044;-69
2021/07/23 04:34:53;;;;;;;32.08;23.70;;;22.10;99.90;;;;;;5030329;28;20060;-69
2021/07/23 04:37:57;;;;;;;36.05;25.13;;;22.30;99.90;;;;;;5029853;28;20056;-68
2021/07/23 04:41:21;;;;;;;28.45;22.95;;;22.40;99.90;;;;;;5029983;28;20048;-69
2021/07/23 04:44:32;;;;;;;29.63;22.58;;;22.50;99.90;;;;;;5019761;28;20053;-69
2021/07/23 04:47:37;;;;;;;32.17;21.48;;;22.70;99.90;;;;;;5029408;28;20040;-69
2021/07/23 04:50:43;;;;;;;24.70;20.83;;;23.20;99.90;;;;;;5048312;28;20515;-69
2021/07/23 04:54:06;;;;;;;29.85;19.55;;;24.40;99.90;;;;;;5050615;28;20048;-69
2021/07/23 04:57:45;;;;;;;22.77;16.88;;;25.20;99.90;;;;;;5035411;28;20056;-70
2021/07/23 05:00:53;;;;;;;23.08;16.73;;;25.70;99.90;;;;;;5023806;28;20052;-69
2021/07/23 05:03:59;;;;;;;19.45;16.05;;;25.70;99.90;;;;;;5029256;28;20044;-69
2021/07/23 05:07:03;;;;;;;22.80;15.27;;;26.20;99.90;;;;;;5028743;28;20502;-69
2021/07/23 05:10:09;;;;;;;22.70;17.80;;;26.10;99.90;;;;;;5023949;28;20060;-70
2021/07/23 05:13:19;;;;;;;21.88;15.93;;;24.70;99.90;;;;;;5039602;28;20048;-68
2021/07/23 05:16:24;;;;;;;22.70;16.48;;;24.20;99.90;;;;;;5030236;28;20396;-69
2021/07/23 05:19:29;;;;;;;25.98;17.88;;;23.90;99.90;;;;;;5010231;28;20574;-68
2021/07/23 05:22:33;;;;;;;24.92;18.77;;;23.40;99.90;;;;;;5029522;28;20044;-69
2021/07/23 05:25:38;;;;;;;26.00;19.90;;;22.60;99.90;;;;;;5029972;28;20060;-69
2021/07/23 05:28:43;;;;;;;24.77;18.17;;;22.10;99.90;;;;;;5029886;28;20056;-68
2021/07/23 05:31:48;;;;;;;24.38;18.52;;;22.00;99.90;;;;;;5028657;28;20052;-68
2021/07/23 05:34:52;;;;;;;23.77;18.30;;;21.90;99.90;;;;;;5020705;28;20052;-68
2021/07/23 05:37:56;;;;;;;23.58;18.75;;;22.10;99.90;;;;;;5030781;28;20053;-69
2021/07/23 05:41:08;;;;;;;24.00;17.35;;;22.40;99.90;;;;;;5030044;28;20049;-68
2021/07/23 05:44:13;;;;;;;24.10;18.85;;;22.70;99.90;;;;;;5029510;28;20044;-69
2021/07/23 05:47:18;;;;;;;24.83;17.55;;;23.10;99.90;;;;;;5035704;28;20036;-69
2021/07/23 05:50:22;;;;;;;19.90;17.02;;;23.40;99.90;;;;;;5049195;28;20044;-68
2021/07/23 05:53:26;;;;;;;21.67;17.50;;;23.60;99.90;;;;;;5027254;28;20045;-69
2021/07/23 05:56:30;;;;;;;23.90;18.45;;;23.90;99.90;;;;;;5023800;28;20040;-68
2021/07/23 05:59:35;;;;;;;22.77;15.57;;;24.20;99.90;;;;;;5026667;28;20061;-69
2021/07/23 06:02:38;;;;;;;19.23;15.05;;;24.80;99.90;;;;;;5029617;28;20048;-69
2021/07/23 06:05:42;;;;;;;21.25;16.65;;;25.40;99.90;;;;;;5032358;28;20503;-69
2021/07/23 06:08:46;;;;;;;25.48;15.25;;;25.90;99.90;;;;;;5028760;28;20053;-69
2021/07/23 06:11:50;;;;;;;22.65;15.07;;;26.60;99.90;;;;;;5013354;28;20507;-69
2021/07/23 06:14:56;;;;;;;19.00;15.43;;;27.50;99.90;;;;;;5013894;28;20425;-69
2021/07/23 06:18:01;;;;;;;20.13;16.33;;;27.90;99.90;;;;;;5021055;28;20048;-69
2021/07/23 06:21:09;;;;;;;22.10;15.40;;;28.30;99.90;;;;;;5030475;28;20476;-69
2021/07/23 06:24:13;;;;;;;21.98;15.90;;;28.80;99.90;;;;;;5031409;28;20049;-69
2021/07/23 06:27:19;;;;;;;17.77;13.63;;;29.60;99.90;;;;;;5014058;28;20045;-69
2021/07/23 06:30:23;;;;;;;21.85;15.35;;;29.90;99.90;;;;;;5017698;28;20060;-69
2021/07/23 06:33:27;;;;;;;18.10;14.32;;;29.80;99.90;;;;;;5026405;28;20056;-69
2021/07/23 06:36:33;;;;;;;17.10;13.23;;;30.50;99.90;;;;;;5027180;28;20041;-68
2021/07/23 06:39:37;;;;;;;16.10;12.82;;;31.20;99.90;;;;;;5012712;28;20056;-69
2021/07/23 06:42:42;;;;;;;20.23;13.88;;;32.40;99.90;;;;;;5013095;28;20065;-69
2021/07/23 06:45:56;;;;;;;23.55;14.05;;;32.50;99.40;;;;;;5013464;28;20405;-69
2021/07/23 06:49:00;;;;;;;19.95;12.88;;;32.60;99.30;;;;;;5021907;28;20045;-68
2021/07/23 06:52:05;;;;;;;21.77;13.48;;;32.50;98.70;;;;;;5024836;28;20041;-69
2021/07/23 06:55:10;;;;;;;21.05;13.20;;;31.90;99.00;;;;;;5027121;28;20510;-69
2021/07/23 06:58:14;;;;;;;19.00;13.35;;;30.90;99.90;;;;;;5024540;28;20049;-69
2021/07/23 07:01:18;;;;;;;18.92;14.25;;;30.50;99.90;;;;;;5025396;28;20044;-69
2021/07/23 07:04:23;;;;;;;16.08;13.93;;;30.70;99.90;;;;;;5031758;28;20511;-68
2021/07/23 07:07:27;;;;;;;16.58;12.52;;;31.00;99.90;;;;;;5024295;28;20052;-68
2021/07/23 07:10:31;;;;;;;19.98;13.38;;;31.20;99.90;;;;;;5021366;28;20041;-68
2021/07/23 07:13:35;;;;;;;16.10;12.68;;;32.20;99.40;;;;;;5023576;28;20076;-68
2021/07/23 07:16:39;;;;;;;15.55;11.20;;;32.40;99.10;;;;;;5027284;28;20500;-68
2021/07/23 07:19:44;;;;;;;17.25;11.93;;;32.70;98.30;;;;;;5021433;28;20053;-68
2021/07/23 07:22:48;;;;;;;24.77;13.13;;;32.30;98.30;;;;;;5024542;28;20056;-68
2021/07/23 07:25:53;;;;;;;20.17;12.50;;;32.10;98.50;;;;;;5028948;28;20052;-68
2021/07/23 07:28:56;;;;;;;15.75;11.95;;;32.80;98.00;;;;;;5029488;28;20136;-68
2021/07/23 07:32:01;;;;;;;17.45;10.82;;;33.60;97.30;;;;;;5031497;28;20061;-68
2021/07/23 07:35:06;;;;;;;14.98;12.60;;;33.70;96.70;;;;;;5032608;28;20060;-68
2021/07/23 07:38:10;;;;;;;26.30;12.88;;;33.20;96.70;;;;;;5031246;28;20052;-68
2021/07/23 07:41:18;;;;;;;21.58;13.68;;;32.50;97.20;;;;;;5011732;28;20049;-68
2021/07/23 07:44:23;;;;;;;14.48;11.07;;;31.50;98.20;;;;;;5011420;28;20053;-68
2021/07/23 07:47:27;;;;;;;14.60;12.65;;;31.40;98.40;;;;;;5028245;28;20055;-68
2021/07/23 07:50:32;;;;;;;16.60;11.68;;;32.50;98.20;;;;;;5032938;28;20049;-69
2021/07/23 07:53:37;;;;;;;14.23;12.18;;;33.70;96.50;;;;;;5028483;28;20048;-69
2021/07/23 07:56:41;;;;;;;11.90;10.25;;;34.90;95.00;;;;;;5028393;28;20387;-68
2021/07/23 07:59:45;;;;;;;15.90;11.02;;;36.30;93.40;;;;;;5024738;28;20522;-69
2021/07/23 08:02:49;;;;;;;16.13;10.25;;;37.50;91.90;;;;;;5020252;28;20057;-70
2021/07/23 08:06:00;;;;;;;13.68;10.63;;;38.40;90.50;;;;;;5015155;28;20503;-70
2021/07/23 08:09:08;;;;;;;11.85;9.27;;;39.10;88.80;;;;;;5023783;28;20060;-70
2021/07/23 08:12:12;;;;;;;12.15;9.10;;;39.90;86.10;;;;;;5026766;28;20052;-69
2021/07/23 08:15:16;;;;;;;12.73;9.57;;;39.90;85.40;;;;;;5030466;28;20499;-70
2021/07/23 08:18:22;;;;;;;16.25;9.80;;;40.70;83.40;;;;;;5022385;28;20323;-70
2021/07/23 08:21:26;;;;;;;10.50;8.43;;;41.60;80.90;;;;;;5030591;28;20443;-67
2021/07/23 08:24:32;;;;;;;11.57;8.52;;;41.90;80.20;;;;;;5030625;28;20538;-68
2021/07/23 08:27:36;;;;;;;13.23;8.98;;;42.00;78.70;;;;;;5030850;28;20024;-67
2021/07/23 08:30:42;;;;;;;12.10;8.68;;;42.40;77.50;;;;;;5026610;28;20044;-68
2021/07/23 08:33:46;;;;;;;13.48;9.05;;;41.40;78.50;;;;;;5025179;28;20605;-68
2021/07/23 08:36:50;;;;;;;17.73;9.48;;;40.80;79.50;;;;;;5027325;28;20056;-68
2021/07/23 08:39:54;;;;;;;12.48;8.90;;;40.40;79.90;;;;;;5028303;28;20044;-67
2021/07/23 08:43:02;;;;;;;11.30;8.90;;;41.10;78.80;;;;;;5020511;28;20725;-68
2021/07/23 08:46:08;;;;;;;11.98;9.45;;;41.50;78.00;;;;;;5023666;28;20032;-68
2021/07/23 08:49:14;;;;;;;14.27;9.45;;;41.70;76.80;;;;;;5027139;28;20040;-68
2021/07/23 08:52:36;;;;;;;10.25;8.25;;;41.70;77.10;;;;;;5029767;28;20060;-68
2021/07/23 08:55:41;;;;;;;18.40;9.23;;;42.30;75.90;;;;;;5025581;28;20473;-68
2021/07/23 08:58:47;;;;;;;9.65;7.88;;;43.40;74.50;;;;;;5027461;28;20498;-68
2021/07/23 09:02:01;;;;;;;12.82;8.10;;;44.00;74.10;;;;;;5017644;28;20064;-69
2021/07/23 09:05:15;;;;;;;9.27;8.25;;;44.80;71.70;;;;;;5022443;28;20044;-69
2021/07/23 09:08:20;;;;;;;12.02;8.38;;;45.10;71.20;;;;;;5029420;28;20052;-68
2021/07/23 09:11:27;;;;;;;13.15;7.53;;;45.50;70.60;;;;;;5015598;28;20045;-68
2021/07/23 09:14:31;;;;;;;15.27;8.32;;;45.20;70.00;;;;;;5022398;28;20041;-67
2021/07/23 09:17:40;;;;;;;12.77;8.32;;;45.20;70.00;;;;;;5020839;28;20052;-68
2021/07/23 09:20:54;;;;;;;9.38;7.50;;;45.20;69.40;;;;;;5019385;28;20064;-68
2021/07/23 09:23:58;;;;;;;12.98;7.88;;;45.70;68.30;;;;;;5029197;28;20045;-68
2021/07/23 09:27:03;;;;;;;16.00;8.43;;;45.80;68.40;;;;;;5016812;28;20053;-68
2021/07/23 09:30:09;;;;;;;12.77;7.93;;;46.50;68.10;;;;;;5027926;28;20040;-67
2021/07/23 09:33:13;;;;;;;10.85;7.60;;;46.70;67.60;;;;;;5029351;28;20041;-68
2021/07/23 09:36:17;;;;;;;13.75;7.68;;;46.40;67.80;;;;;;5029397;28;20056;-68
2021/07/23 09:39:22;;;;;;;8.65;7.32;;;46.70;67.30;;;;;;5017689;28;20044;-68
2021/07/23 09:42:28;;;;;;;10.77;8.32;;;46.90;66.20;;;;;;5027008;28;20391;-67
2021/07/23 09:45:34;;;;;;;13.70;7.60;;;46.80;66.20;;;;;;5026324;28;20052;-68
2021/07/23 09:48:38;;;;;;;8.63;7.68;;;46.90;66.10;;;;;;5019577;28;20042;-68
2021/07/23 09:51:42;;;;;;;15.23;8.05;;;46.60;66.00;;;;;;5029601;28;20045;-68
2021/07/23 09:54:46;;;;;;;11.52;8.25;;;47.00;65.90;;;;;;5029908;28;20052;-68
2021/07/23 09:57:51;;;;;;;16.95;6.75;;;47.90;65.10;;;;;;5028741;28;20048;-67
2021/07/23 10:00:56;;;;;;;9.65;6.70;;;48.60;64.10;;;;;;5027158;28;20057;-67
2021/07/23 10:04:08;;;;;;;11.68;6.75;;;49.00;61.80;;;;;;5027050;28;20080;-69
2021/07/23 10:07:26;;;;;;;14.73;7.30;;;49.50;61.00;;;;;;5011124;28;20048;-68
2021/07/23 10:10:31;;;;;;;10.88;5.97;;;49.80;61.50;;;;;;5025627;28;20400;-69
2021/07/23 10:13:39;;;;;;;14.73;7.47;;;50.60;60.40;;;;;;5013762;28;20044;-67
2021/07/23 10:16:43;;;;;;;9.25;6.30;;;49.10;60.90;;;;;;5010642;28;20049;-67
2021/07/23 10:19:48;;;;;;;8.90;6.57;;;48.50;61.80;;;;;;5009909;28;20500;-67
2021/07/23 10:22:56;;;;;;;13.57;7.03;;;48.50;61.30;;;;;;5020218;28;20041;-66
2021/07/23 10:26:01;;;;;;;7.95;6.38;;;48.40;61.40;;;;;;5015618;28;20125;-67
2021/07/23 10:29:07;;;;;;;8.60;6.30;;;48.40;61.30;;;;;;5020379;28;20392;-67
2021/07/23 10:32:24;;;;;;;9.57;6.70;;;47.50;61.20;;;;;;5016489;28;20049;-67
2021/07/23 10:35:30;;;;;;;9.27;5.97;;;48.00;60.60;;;;;;5027225;28;20053;-68
2021/07/23 10:38:34;;;;;;;10.07;6.45;;;48.90;60.20;;;;;;5029229;28;20403;-68
2021/07/23 10:41:42;;;;;;;11.55;6.55;;;48.90;60.60;;;;;;5028475;28;20064;-67
2021/07/23 10:44:46;;;;;;;10.10;6.93;;;48.80;60.40;;;;;;5016272;28;20057;-68
2021/07/23 10:47:51;;;;;;;9.15;6.68;;;49.00;61.30;;;;;;5023501;28;20472;-68
2021/07/23 10:50:55;;;;;;;10.05;6.88;;;48.90;60.70;;;;;;5026154;28;20053;-67
2021/07/23 10:54:02;;;;;;;9.23;7.10;;;48.40;61.10;;;;;;5032568;28;20052;-67
2021/07/23 10:57:07;;;;;;;10.30;7.43;;;48.00;61.60;;;;;;5032094;28;20048;-67
2021/07/23 11:00:12;;;;;;;10.13;7.50;;;47.30;61.70;;;;;;5029462;28;20065;-67
2021/07/23 11:03:35;;;;;;;10.13;6.57;;;47.50;62.00;;;;;;5023473;28;20404;-68
2021/07/23 11:06:40;;;;;;;11.05;6.95;;;47.90;61.70;;;;;;5014784;28;20032;-68
2021/07/23 11:09:45;;;;;;;13.20;7.93;;;47.70;60.50;;;;;;5027661;28;20175;-66
2021/07/23 11:12:50;;;;;;;11.88;7.38;;;42.50;63.50;;;;;;5030868;28;20163;-67
2021/07/23 11:16:18;;;;;;;13.13;7.70;;;40.10;65.40;;;;;;5031653;28;20452;-67
2021/07/23 11:19:25;;;;;;;9.40;6.78;;;41.60;66.20;;;;;;5021036;28;20040;-67
2021/07/23 11:22:36;;;;;;;10.50;7.05;;;43.00;64.90;;;;;;5018375;28;20044;-66
2021/07/23 11:25:49;;;;;;;10.10;7.25;;;45.10;63.60;;;;;;5013588;28;20037;-66
2021/07/23 11:28:56;;;;;;;11.05;6.57;;;45.90;62.60;;;;;;5013303;28;20048;-67
2021/07/23 11:32:09;;;;;;;10.82;6.93;;;46.70;61.40;;;;;;5016591;28;20404;-68
2021/07/23 11:35:15;;;;;;;19.27;7.20;;;47.20;60.90;;;;;;5014214;28;20488;-67
2021/07/23 11:38:19;;;;;;;8.57;6.25;;;47.60;60.30;;;;;;5011278;28;20049;-68
2021/07/23 11:41:23;;;;;;;6.97;6.28;;;47.40;60.60;;;;;;5021416;28;20098;-69
2021/07/23 11:44:27;;;;;;;7.20;6.25;;;47.70;60.00;;;;;;5016295;28;20048;-68
2021/07/23 11:47:35;;;;;;;9.95;6.00;;;48.10;59.20;;;;;;5016003;28;20361;-69
2021/07/23 11:50:54;;;;;;;9.85;7.10;;;47.90;59.40;;;;;;5017415;28;20208;-67
2021/07/23 11:53:58;;;;;;;;;;;43.60;59.70;;;;;;5012957;28;20041;-67
2021/07/23 11:57:03;;;;;;;17.05;7.13;;;40.90;64.90;;;;;;5009757;28;19916;-67
2021/07/23 12:00:27;;;;;;;12.55;7.88;;;42.50;63.70;;;;;;5009427;28;20041;-68
2021/07/23 12:03:32;;;;;;;9.60;7.60;;;42.40;63.80;;;;;;5013608;28;20057;-67
2021/07/23 12:06:44;;;;;;;11.00;6.80;;;41.70;62.80;;;;;;5011369;28;20268;-68
2021/07/23 12:09:50;;;;;;;11.93;7.13;;;43.00;63.30;;;;;;5015760;28;20041;-68
2021/07/23 12:12:56;;;;;;;15.93;7.75;;;41.80;64.00;;;;;;5009978;28;20040;-67
2021/07/23 12:16:01;;;;;;;11.80;7.75;;;42.00;65.10;;;;;;5009013;28;20049;-68
2021/07/23 12:19:11;;;;;;;10.88;7.57;;;42.60;64.30;;;;;;5008666;28;20056;-68
2021/07/23 12:22:15;;;;;;;10.55;7.25;;;41.80;64.60;;;;;;5011096;28;20563;-69
2021/07/23 12:25:21;;;;;;;12.73;7.88;;;42.00;64.20;;;;;;5010102;28;20388;-69
2021/07/23 12:28:26;;;;;;;13.05;8.07;;;43.00;63.70;;;;;;5008760;28;20113;-69
2021/07/23 12:31:31;;;;;;;15.65;7.40;;;43.50;62.80;;;;;;5007866;28;20057;-66
2021/07/23 12:34:36;;;;;;;14.05;7.88;;;43.90;62.20;;;;;;5008975;28;20049;-69
2021/07/23 12:37:40;;;;;;;7.72;6.43;;;42.00;62.70;;;;;;5011316;28;20045;-68
2021/07/23 12:40:49;;;;;;;11.00;7.13;;;42.40;62.50;;;;;;5015425;28;20045;-69
2021/07/23 12:44:05;;;;;;;10.15;7.72;;;39.90;64.60;;;;;;5009901;28;20413;-69
2021/07/23 12:47:17;;;;;;;11.32;7.50;;;39.90;64.70;;;;;;5023316;28;20048;-70
2021/07/23 12:50:21;;;;;;;12.60;6.95;;;39.80;65.40;;;;;;5020909;28;20049;-68
2021/07/23 12:53:26;;;;;;;10.35;7.28;;;39.20;66.50;;;;;;5021438;28;20052;-69
2021/07/23 12:56:32;;;;;;;11.50;7.40;;;39.00;66.20;;;;;;5016760;28;20057;-68
2021/07/23 12:59:36;;;;;;;8.02;6.38;;;37.60;66.00;;;;;;5020172;28;20045;-70
2021/07/23 13:02:40;;;;;;;9.30;6.43;;;37.60;66.60;;;;;;5013944;28;20068;-69
2021/07/23 13:05:44;;;;;;;16.50;7.28;;;38.70;65.80;;;;;;5021825;28;20045;-69
2021/07/23 13:08:49;;;;;;;11.68;7.13;;;38.50;65.10;;;;;;5020875;28;20052;-69
2021/07/23 13:11:54;;;;;;;8.63;6.85;;;36.90;65.40;;;;;;5020742;28;20041;-69
2021/07/23 13:14:58;;;;;;;20.40;7.38;;;35.60;68.20;;;;;;5019803;28;20396;-69
2021/07/23 13:18:02;;;;;;;13.63;7.85;;;36.50;67.60;;;;;;5017506;28;20049;-69
2021/07/23 13:21:08;;;;;;;8.60;6.50;;;36.00;68.20;;;;;;5018065;28;20044;-69
2021/07/23 13:24:13;;;;;;;15.80;6.82;;;37.30;67.70;;;;;;5017957;28;20049;-69
2021/07/23 13:27:18;;;;;;;9.77;6.53;;;37.40;66.90;;;;;;5020116;28;20087;-69
2021/07/23 13:30:22;;;;;;;8.52;6.07;;;37.40;66.90;;;;;;5022397;28;20041;-70
2021/07/23 13:33:26;;;;;;;10.32;6.43;;;38.00;65.00;;;;;;5020428;28;20053;-69
2021/07/23 13:37:00;;;;;;;12.73;7.13;;;38.50;64.60;;;;;;5020576;28;20044;-68
2021/07/23 13:40:11;;;;;;;9.77;5.55;;;38.90;64.30;;;;;;5016151;28;20045;-67
2021/07/23 13:43:16;;;;;;;;;;;37.80;64.20;;;;;;5024739;28;20041;-68
2021/07/23 13:46:20;;;;;;;10.48;6.50;;;36.50;66.20;;;;;;5029795;28;19920;-68
2021/07/23 13:49:24;;;;;;;11.63;6.63;;;37.20;65.20;;;;;;5010921;28;20044;-69
2021/07/23 13:52:30;;;;;;;9.05;6.40;;;38.20;64.00;;;;;;5011180;28;20045;-69
2021/07/23 13:55:34;;;;;;;12.20;6.40;;;38.80;63.50;;;;;;5020731;28;20056;-68
2021/07/23 13:58:39;;;;;;;11.65;6.68;;;36.70;64.90;;;;;;5023370;28;20067;-69
2021/07/23 14:01:44;;;;;;;12.20;6.75;;;36.90;65.20;;;;;;5010719;28;20053;-69
2021/07/23 14:04:49;;;;;;;20.85;6.68;;;37.00;65.20;;;;;;5011389;28;20125;-70
2021/07/23 14:07:54;;;;;;;9.35;6.88;;;37.20;65.70;;;;;;5011348;28;20113;-70
2021/07/23 14:11:00;;;;;;;14.60;6.90;;;37.60;65.80;;;;;;5013012;28;20053;-70
2021/07/23 14:14:04;;;;;;;12.75;6.75;;;37.90;63.80;;;;;;5040758;28;20045;-70
2021/07/23 14:17:09;;;;;;;9.77;6.57;;;37.90;64.40;;;;;;5024320;28;20393;-67
2021/07/23 14:20:12;;;;;;;11.88;6.90;;;37.80;64.90;;;;;;5037842;28;20486;-68
2021/07/23 14:23:17;;;;;;;11.52;6.97;;;37.40;64.90;;;;;;5045946;28;20068;-69
2021/07/23 14:26:21;;;;;;;10.30;7.40;;;37.50;65.10;;;;;;5016979;28;20036;-69
2021/07/23 14:29:26;;;;;;;11.05;6.82;;;37.70;64.80;;;;;;5030231;28;20495;-68
2021/07/23 14:32:30;;;;;;;14.50;7.68;;;37.90;63.50;;;;;;5015291;28;20045;-69
2021/07/23 14:35:35;;;;;;;15.93;7.25;;;38.10;63.70;;;;;;5013892;28;20061;-68
2021/07/23 14:38:40;;;;;;;21.50;7.65;;;38.00;64.40;;;;;;5012753;28;20053;-69
2021/07/23 14:41:45;;;;;;;16.67;7.95;;;36.30;65.80;;;;;;5025879;28;20044;-67
2021/07/23 14:44:49;;;;;;;11.55;7.20;;;36.30;66.20;;;;;;5032735;28;20052;-68
2021/07/23 14:47:53;;;;;;;12.88;7.88;;;36.10;66.70;;;;;;5053268;28;20048;-69
2021/07/23 14:50:58;;;;;;;11.75;7.53;;;36.10;66.70;;;;;;5047617;28;20048;-70
2021/07/23 14:54:02;;;;;;;15.65;7.65;;;36.30;66.80;;;;;;5033145;28;20048;-69
2021/07/23 14:57:07;;;;;;;21.42;8.43;;;36.40;66.00;;;;;;5032227;28;20044;-69
2021/07/23 15:00:11;;;;;;;10.30;7.57;;;36.40;65.70;;;;;;5031110;28;20034;-68
2021/07/23 15:03:16;;;;;;;10.43;7.28;;;36.60;66.90;;;;;;5018004;28;20049;-68
2021/07/23 15:06:21;;;;;;;23.17;7.93;;;36.70;65.90;;;;;;5022780;28;20036;-68
2021/07/23 15:09:25;;;;;;;24.85;8.00;;;36.50;66.60;;;;;;5013327;28;20503;-69
2021/07/23 15:12:32;;;;;;;13.10;8.30;;;36.40;67.50;;;;;;5031432;28;20060;-68
2021/07/23 15:15:36;;;;;;;10.07;7.47;;;36.30;66.40;;;;;;5029205;28;20094;-68
2021/07/23 15:18:43;;;;;;;9.85;7.22;;;36.20;66.20;;;;;;5029790;28;20044;-69
2021/07/23 15:21:53;;;;;;;13.73;7.50;;;36.30;65.80;;;;;;5032250;28;20053;-69
2021/07/23 15:24:57;;;;;;;11.35;7.55;;;36.20;66.50;;;;;;5033200;28;20049;-70
2021/07/23 15:28:02;;;;;;;9.77;7.18;;;36.10;66.30;;;;;;5032564;28;20056;-70
2021/07/23 15:31:08;;;;;;;12.00;7.43;;;36.20;67.00;;;;;;5031547;28;20048;-69
2021/07/23 15:34:13;;;;;;;28.27;8.35;;;35.90;67.60;;;;;;5031356;28;20048;-69
2021/07/23 15:37:18;;;;;;;12.52;8.00;;;35.60;68.70;;;;;;5031599;28;20052;-69
2021/07/23 15:40:24;;;;;;;16.40;8.13;;;35.50;69.20;;;;;;5019013;28;20042;-69
2021/07/23 15:43:27;;;;;;;9.82;7.63;;;35.30;69.20;;;;;;5031538;28;20060;-69
2021/07/23 15:46:32;;;;;;;9.75;7.65;;;35.30;68.40;;;;;;5031567;28;20044;-69
2021/07/23 15:49:37;;;;;;;10.35;7.45;;;35.30;70.00;;;;;;5031356;28;20400;-69
2021/07/23 15:52:42;;;;;;;9.27;7.53;;;35.50;69.30;;;;;;5030662;28;20056;-70
2021/07/23 15:55:46;;;;;;;10.45;7.78;;;35.60;69.10;;;;;;5031565;28;20432;-70